createdAt,value
2022-09-10T00:02:27.285Z,12.65
2022-09-10T00:05:29.158Z,12.68
2022-09-10T00:08:31.289Z,12.65
2022-09-10T00:11:33.086Z,12.65
2022-09-10T00:14:36.046Z,12.68
2022-09-10T00:17:39.206Z,12.67
2022-09-10T00:20:44.339Z,12.69
2022-09-10T00:23:45.934Z,12.67
2022-09-10T00:26:47.545Z,12.64
2022-09-10T00:29:51.825Z,12.67
2022-09-10T00:32:53.932Z,12.71
2022-09-10T00:35:55.498Z,12.62
2022-09-10T00:38:58.522Z,12.61
2022-09-10T00:42:00.085Z,12.61
2022-09-10T00:45:02.442Z,12.57
2022-09-10T00:48:11.585Z,12.59
2022-09-10T00:51:13.189Z,12.60
2022-09-10T00:54:14.963Z,12.62
2022-09-10T00:57:20.954Z,12.60
2022-09-10T01:00:22.996Z,12.58
2022-09-10T01:03:25.702Z,12.59
2022-09-10T01:06:27.927Z,12.59
2022-09-10T01:09:29.569Z,12.59
2022-09-10T01:12:35.665Z,12.60
2022-09-10T01:15:46.287Z,12.62
2022-09-10T01:18:51.200Z,12.60
2022-09-10T01:21:58.857Z,12.54
2022-09-10T01:25:05.438Z,12.54
2022-09-10T01:28:09.225Z,12.52
2022-09-10T01:31:26.438Z,12.52
2022-09-10T01:34:54.448Z,12.49
2022-09-10T01:37:57.798Z,12.47
2022-09-10T01:40:59.770Z,12.48
2022-09-10T01:44:11.476Z,12.47
2022-09-10T01:47:36.374Z,12.46
2022-09-10T01:50:57.374Z,12.46
2022-09-10T01:54:05.293Z,12.47
2022-09-10T01:57:12.983Z,12.47
2022-09-10T02:00:17.649Z,12.47
2022-09-10T02:03:21.650Z,12.44
2022-09-10T02:06:24.117Z,12.41
2022-09-10T02:09:25.850Z,12.44
2022-09-10T02:12:27.419Z,12.46
2022-09-10T02:15:49.266Z,12.44
2022-09-10T02:18:56.234Z,12.44
2022-09-10T02:21:57.802Z,12.44
2022-09-10T02:24:59.750Z,12.43
2022-09-10T02:28:01.379Z,12.38
2022-09-10T02:31:03.267Z,12.42
2022-09-10T02:34:04.876Z,12.39
2022-09-10T02:37:06.553Z,12.38
2022-09-10T02:40:11.593Z,12.38
2022-09-10T02:43:13.369Z,12.35
2022-09-10T02:46:15.195Z,12.36
2022-09-10T02:49:18.089Z,12.30
2022-09-10T02:52:21.151Z,12.30
2022-09-10T02:55:22.820Z,12.27
2022-09-10T02:58:24.526Z,12.24
2022-09-10T03:01:26.347Z,12.22
2022-09-10T03:04:34.301Z,12.20
2022-09-10T03:07:36.981Z,12.18
2022-09-10T03:10:38.670Z,12.18
2022-09-10T03:13:42.609Z,12.19
2022-09-10T03:16:49.604Z,12.20
2022-09-10T03:19:51.245Z,12.18
2022-09-10T03:22:52.776Z,12.22
2022-09-10T03:25:54.641Z,12.22
2022-09-10T03:29:00.198Z,12.25
2022-09-10T03:32:04.821Z,12.27
2022-09-10T03:35:06.596Z,12.24
2022-09-10T03:38:08.282Z,12.30
2022-09-10T03:41:10.230Z,12.25
2022-09-10T03:44:13.030Z,12.25
2022-09-10T03:47:14.783Z,12.21
2022-09-10T03:50:17.097Z,12.18
2022-09-10T03:53:19.369Z,12.16
2022-09-10T03:56:21.307Z,12.20
2022-09-10T03:59:23.071Z,12.14
2022-09-10T04:02:24.709Z,12.16
2022-09-10T04:05:27.661Z,12.12
2022-09-10T04:08:29.254Z,12.12
2022-09-10T04:11:31.138Z,12.10
2022-09-10T04:14:33.354Z,12.07
2022-09-10T04:17:36.234Z,12.09
2022-09-10T04:20:39.114Z,12.11
2022-09-10T04:23:45.681Z,12.08
2022-09-10T04:26:47.319Z,12.11
2022-09-10T04:29:51.536Z,12.10
2022-09-10T04:32:54.788Z,12.10
2022-09-10T04:36:00.506Z,12.09
2022-09-10T04:39:02.214Z,12.07
2022-09-10T04:42:06.832Z,12.09
2022-09-10T04:45:12.266Z,12.06
2022-09-10T04:48:13.986Z,12.10
2022-09-10T04:51:17.170Z,12.06
2022-09-10T04:54:21.494Z,12.08
2022-09-10T04:57:23.700Z,12.10
2022-09-10T05:00:26.615Z,12.07
2022-09-10T05:03:28.765Z,12.09
2022-09-10T05:06:30.645Z,12.12
2022-09-10T05:09:33.597Z,12.08
2022-09-10T05:12:38.556Z,12.08
2022-09-10T05:15:41.535Z,12.02
2022-09-10T05:18:43.797Z,12.00
2022-09-10T05:21:46.045Z,11.97
2022-09-10T05:24:47.765Z,11.97
2022-09-10T05:27:51.265Z,11.97
2022-09-10T05:30:55.230Z,11.94
2022-09-10T05:34:01.186Z,11.93
2022-09-10T05:37:05.489Z,11.94
2022-09-10T05:40:09.219Z,11.93
2022-09-10T05:43:12.040Z,11.93
2022-09-10T05:46:13.767Z,11.90
2022-09-10T05:49:19.609Z,11.85
2022-09-10T05:52:21.493Z,11.84
2022-09-10T05:55:23.345Z,11.81
2022-09-10T05:58:25.010Z,11.81
2022-09-10T06:01:27.386Z,11.83
2022-09-10T06:04:29.044Z,11.85
2022-09-10T06:07:31.305Z,11.83
2022-09-10T06:10:35.402Z,11.85
2022-09-10T06:13:38.523Z,11.87
2022-09-10T06:16:40.442Z,11.89
2022-09-10T06:19:44.717Z,11.90
2022-09-10T06:22:46.356Z,11.98
2022-09-10T06:25:48.501Z,11.94
2022-09-10T06:28:50.091Z,11.96
2022-09-10T06:31:52.766Z,11.92
2022-09-10T06:34:54.569Z,11.96
2022-09-10T06:37:58.162Z,11.95
2022-09-10T06:41:02.344Z,11.93
2022-09-10T06:44:10.769Z,11.96
2022-09-10T06:50:39.063Z,11.96
2022-09-10T06:53:41.753Z,12.00
2022-09-10T06:56:48.944Z,12.06
2022-09-10T06:59:50.537Z,12.07
2022-09-10T07:02:52.603Z,12.08
2022-09-10T07:06:02.828Z,12.11
2022-09-10T07:09:04.691Z,12.16
2022-09-10T07:12:11.368Z,12.22
2022-09-10T07:15:15.213Z,12.21
2022-09-10T07:18:16.800Z,12.23
2022-09-10T07:21:19.478Z,12.25
2022-09-10T07:24:22.278Z,12.23
2022-09-10T07:27:35.254Z,12.25
2022-09-10T07:30:37.242Z,12.27
2022-09-10T07:33:39.378Z,12.30
2022-09-10T07:36:41.048Z,12.31
2022-09-10T07:39:43.947Z,12.33
2022-09-10T07:42:46.057Z,12.31
2022-09-10T07:45:47.748Z,12.32
2022-09-10T07:48:52.979Z,12.32
2022-09-10T07:51:59.704Z,12.42
2022-09-10T07:55:05.825Z,12.40
2022-09-10T07:58:08.241Z,12.36
2022-09-10T08:01:12.512Z,12.37
2022-09-10T08:04:14.543Z,12.40
2022-09-10T08:07:17.278Z,12.35
2022-09-10T08:10:19.701Z,12.40
2022-09-10T08:13:23.758Z,12.48
2022-09-10T08:16:25.470Z,12.61
2022-09-10T08:19:30.148Z,12.67
2022-09-10T08:22:31.777Z,12.83
2022-09-10T08:25:34.809Z,12.97
2022-09-10T08:28:37.744Z,13.02
2022-09-10T08:31:42.445Z,13.08
2022-09-10T08:34:52.578Z,13.10
2022-09-10T08:37:54.178Z,13.19
2022-09-10T08:40:57.484Z,13.26
2022-09-10T08:44:09.048Z,13.31
2022-09-10T08:47:14.931Z,13.32
2022-09-10T08:50:21.018Z,13.41
2022-09-10T08:53:29.871Z,13.52
2022-09-10T08:56:33.063Z,13.64
2022-09-10T08:59:36.015Z,13.67
2022-09-10T09:02:56.506Z,13.55
2022-09-10T09:05:59.234Z,13.54
2022-09-10T09:09:12.280Z,13.70
2022-09-10T09:12:34.922Z,13.80
2022-09-10T09:15:59.237Z,13.93
2022-09-10T09:19:04.366Z,13.73
2022-09-10T09:22:09.035Z,13.62
2022-09-10T09:25:12.187Z,13.43
2022-09-10T09:28:19.498Z,13.40
2022-09-10T09:31:28.772Z,13.32
2022-09-10T09:34:39.242Z,13.19
2022-09-10T09:37:41.615Z,13.15
2022-09-10T09:40:44.884Z,13.26
2022-09-10T09:43:53.172Z,13.25
2022-09-10T09:46:56.914Z,13.40
2022-09-10T09:49:58.869Z,13.43
2022-09-10T09:53:00.421Z,13.46
2022-09-10T09:56:02.757Z,13.54
2022-09-10T09:59:15.033Z,13.65
2022-09-10T10:02:17.971Z,13.66
2022-09-10T10:05:25.730Z,14.00
2022-09-10T10:08:31.383Z,14.20
2022-09-10T10:11:43.612Z,14.16
2022-09-10T10:14:45.134Z,13.82
2022-09-10T10:17:47.212Z,13.53
2022-09-10T10:20:49.310Z,13.55
2022-09-10T10:23:50.836Z,13.45
2022-09-10T10:26:52.384Z,13.38
2022-09-10T10:30:12.522Z,13.32
2022-09-10T10:33:22.176Z,13.39
2022-09-10T10:36:52.293Z,13.55
2022-09-10T10:39:53.921Z,13.69
2022-09-10T10:43:15.189Z,13.62
2022-09-10T10:46:16.753Z,13.58
2022-09-10T10:49:22.869Z,13.63
2022-09-10T10:52:27.450Z,13.79
2022-09-10T10:55:39.145Z,13.75
2022-09-10T10:58:53.947Z,13.53
2022-09-10T11:01:58.104Z,13.29
2022-09-10T11:05:01.467Z,13.28
2022-09-10T11:08:06.675Z,13.24
2022-09-10T11:11:09.785Z,13.27
2022-09-10T11:14:14.367Z,13.39
2022-09-10T11:17:18.764Z,13.22
2022-09-10T11:20:29.346Z,13.18
2022-09-10T11:23:40.204Z,13.12
2022-09-10T11:26:41.893Z,13.29
2022-09-10T11:29:44.962Z,13.41
2022-09-10T11:32:57.925Z,13.46
2022-09-10T11:36:00.083Z,13.34
2022-09-10T11:39:07.087Z,13.31
2022-09-10T11:42:33.477Z,13.27
2022-09-10T11:45:36.238Z,13.12
2022-09-10T11:48:42.848Z,13.12
2022-09-10T11:51:44.385Z,13.18
2022-09-10T11:54:48.985Z,13.13
2022-09-10T11:57:58.420Z,13.10
2022-09-10T12:01:11.815Z,13.12
2022-09-10T12:04:22.258Z,13.12
2022-09-10T12:07:25.740Z,13.02
2022-09-10T12:10:28.945Z,12.98
2022-09-10T12:13:33.268Z,12.92
2022-09-10T12:16:38.718Z,12.92
2022-09-10T12:19:41.401Z,13.07
2022-09-10T12:22:42.906Z,12.99
2022-09-10T12:25:44.434Z,13.04
2022-09-10T12:28:45.962Z,13.03
2022-09-10T12:32:06.377Z,13.09
2022-09-10T12:35:26.465Z,12.97
2022-09-10T12:38:46.365Z,13.04
2022-09-10T12:41:47.829Z,12.94
2022-09-10T12:44:49.586Z,12.94
2022-09-10T12:47:52.424Z,12.98
2022-09-10T12:50:56.091Z,13.08
2022-09-10T12:54:03.672Z,13.07
2022-09-10T12:57:09.567Z,13.06
2022-09-10T13:00:17.290Z,12.99
2022-09-10T13:03:19.783Z,12.99
2022-09-10T13:06:21.309Z,13.09
2022-09-10T13:09:24.146Z,13.15
2022-09-10T13:12:25.801Z,13.28
2022-09-10T13:15:31.194Z,13.30
2022-09-10T13:18:34.158Z,13.47
2022-09-10T13:21:35.689Z,13.59
2022-09-10T13:24:37.978Z,13.60
2022-09-10T13:27:40.034Z,13.55
2022-09-10T13:30:41.647Z,13.56
2022-09-10T13:33:49.211Z,13.61
2022-09-10T13:36:53.791Z,13.76
2022-09-10T13:40:13.814Z,13.52
2022-09-10T13:43:15.390Z,13.48
2022-09-10T13:46:35.840Z,13.53
2022-09-10T13:49:53.790Z,13.43
2022-09-10T13:52:58.863Z,13.42
2022-09-10T13:56:01.117Z,13.32
2022-09-10T13:59:03.119Z,13.32
2022-09-10T14:02:04.881Z,13.26
2022-09-10T14:05:22.227Z,13.28
2022-09-10T14:08:25.654Z,13.27
2022-09-10T14:11:30.581Z,13.28
2022-09-10T14:14:34.103Z,13.15
2022-09-10T14:17:37.069Z,13.13
2022-09-10T14:20:38.602Z,13.25
2022-09-10T14:23:46.813Z,13.31
2022-09-10T14:27:04.162Z,13.30
2022-09-10T14:30:18.374Z,13.27
2022-09-10T14:33:26.550Z,13.20
2022-09-10T14:36:28.173Z,13.28
2022-09-10T14:39:30.057Z,13.26
2022-09-10T14:42:32.978Z,13.25
2022-09-10T14:45:54.744Z,13.30
2022-09-10T14:49:01.865Z,13.30
2022-09-10T14:52:03.622Z,13.32
2022-09-10T14:55:05.306Z,13.35
2022-09-10T14:58:06.842Z,13.36
2022-09-10T15:01:09.336Z,13.33
2022-09-10T15:04:18.519Z,13.29
2022-09-10T15:07:20.213Z,13.33
2022-09-10T15:10:21.874Z,13.27
2022-09-10T15:13:23.358Z,13.25
2022-09-10T15:16:25.034Z,13.29
2022-09-10T15:19:26.697Z,13.36
2022-09-10T15:22:29.815Z,13.36
2022-09-10T15:25:41.373Z,13.34
2022-09-10T15:28:42.951Z,13.25
2022-09-10T15:31:44.747Z,13.29
2022-09-10T15:34:46.326Z,13.21
2022-09-10T15:37:47.890Z,13.26
2022-09-10T15:40:49.929Z,13.25
2022-09-10T15:43:51.569Z,13.30
2022-09-10T15:46:53.141Z,13.28
2022-09-10T15:49:54.933Z,13.27
2022-09-10T15:52:56.462Z,13.23
2022-09-10T15:55:59.162Z,13.16
2022-09-10T15:59:01.828Z,13.09
2022-09-10T16:02:03.430Z,13.08
2022-09-10T16:05:06.049Z,13.03
2022-09-10T16:08:07.806Z,13.02
2022-09-10T16:11:11.134Z,12.98
2022-09-10T16:14:13.583Z,12.93
2022-09-10T16:17:17.407Z,12.92
2022-09-10T16:20:20.427Z,12.90
2022-09-10T16:23:22.067Z,12.83
2022-09-10T16:26:24.685Z,12.83
2022-09-10T16:29:26.443Z,12.83
2022-09-10T16:32:28.832Z,12.84
2022-09-10T16:35:30.410Z,12.89
2022-09-10T16:38:32.427Z,12.89
2022-09-10T16:41:33.964Z,13.00
2022-09-10T16:44:35.745Z,13.07
2022-09-10T16:47:37.850Z,13.03
2022-09-10T16:50:39.470Z,13.03
2022-09-10T16:53:41.598Z,13.00
2022-09-10T16:56:44.348Z,12.98
2022-09-10T16:59:47.910Z,12.93
2022-09-10T17:02:50.981Z,12.92
2022-09-10T17:05:53.018Z,12.88
2022-09-10T17:08:55.339Z,12.90
2022-09-10T17:11:56.906Z,12.84
2022-09-10T17:14:58.502Z,12.86
2022-09-10T17:18:00.364Z,12.88
2022-09-10T17:21:01.890Z,12.84
2022-09-10T17:24:04.158Z,12.85
2022-09-10T17:27:06.759Z,12.84
2022-09-10T17:30:08.594Z,12.81
2022-09-10T17:33:11.984Z,12.84
2022-09-10T17:36:13.532Z,12.81
2022-09-10T17:39:15.278Z,12.79
2022-09-10T17:42:17.583Z,12.74
2022-09-10T17:45:19.839Z,12.76
2022-09-10T17:48:25.155Z,12.79
2022-09-10T17:51:30.850Z,12.79
2022-09-10T17:54:32.680Z,12.77
2022-09-10T17:57:35.701Z,12.78
2022-09-10T18:00:39.814Z,12.79
2022-09-10T18:03:41.841Z,12.77
2022-09-10T18:06:46.815Z,12.77
2022-09-10T18:09:50.555Z,12.73
2022-09-10T18:12:52.093Z,12.71
2022-09-10T18:15:53.779Z,12.63
2022-09-10T18:19:00.054Z,12.62
2022-09-10T18:22:01.674Z,12.66
2022-09-10T18:25:03.232Z,12.67
2022-09-10T18:28:04.796Z,12.68
2022-09-10T18:31:06.654Z,12.68
2022-09-10T18:34:11.171Z,12.65
2022-09-10T18:37:13.866Z,12.67
2022-09-10T18:40:15.774Z,12.63
2022-09-10T18:43:17.354Z,12.67
2022-09-10T18:46:20.153Z,12.72
2022-09-10T18:49:23.421Z,12.75
2022-09-10T18:52:24.988Z,12.78
2022-09-10T18:55:26.528Z,12.78
2022-09-10T18:58:28.150Z,12.79
2022-09-10T19:01:31.007Z,12.78
2022-09-10T19:04:38.403Z,12.73
2022-09-10T19:07:50.724Z,12.65
2022-09-10T19:10:53.813Z,12.67
2022-09-10T19:13:55.881Z,12.64
2022-09-10T19:16:58.044Z,12.58
2022-09-10T19:19:59.575Z,12.61
2022-09-10T19:23:01.142Z,12.61
2022-09-10T19:26:03.185Z,12.62
2022-09-10T19:29:05.108Z,12.58
2022-09-10T19:32:07.013Z,12.59
2022-09-10T19:35:10.344Z,12.60
2022-09-10T19:38:36.145Z,12.59
2022-09-10T19:41:35.550Z,12.64
2022-09-10T19:44:37.337Z,12.67
2022-09-10T19:47:38.897Z,12.70
2022-09-10T19:50:40.737Z,12.68
2022-09-10T19:53:42.327Z,12.59
2022-09-10T19:56:44.459Z,12.56
2022-09-10T19:59:46.174Z,12.58
2022-09-10T20:02:49.750Z,12.64
2022-09-10T20:05:51.319Z,12.66
2022-09-10T20:08:52.837Z,12.67
2022-09-10T20:11:54.367Z,12.62
2022-09-10T20:14:55.935Z,12.66
2022-09-10T20:17:57.435Z,12.75
2022-09-10T20:21:34.621Z,12.76
2022-09-10T20:24:36.141Z,12.82
2022-09-10T20:27:37.797Z,12.71
2022-09-10T20:30:39.714Z,12.64
2022-09-10T20:33:42.428Z,12.51
2022-09-10T20:36:44.286Z,12.44
2022-09-10T20:39:48.471Z,12.43
2022-09-10T20:42:53.165Z,12.37
2022-09-10T20:45:54.738Z,12.34
2022-09-10T20:49:02.687Z,12.32
2022-09-10T20:52:04.525Z,12.33
2022-09-10T20:55:06.461Z,12.37
2022-09-10T20:58:08.181Z,12.41
2022-09-10T21:01:10.669Z,12.46
2022-09-10T21:04:13.170Z,12.48
2022-09-10T21:07:15.106Z,12.50
2022-09-10T21:10:16.695Z,12.45
2022-09-10T21:13:18.456Z,12.48
2022-09-10T21:16:21.092Z,12.54
2022-09-10T21:19:22.626Z,12.60
2022-09-10T21:22:24.183Z,12.68
2022-09-10T21:25:26.155Z,12.73
2022-09-10T21:28:27.697Z,12.69
2022-09-10T21:31:29.484Z,12.69
2022-09-10T21:34:32.417Z,12.70
2022-09-10T21:37:33.993Z,12.73
2022-09-10T21:40:35.526Z,12.72
2022-09-10T21:43:37.027Z,12.73
2022-09-10T21:46:39.572Z,12.76
2022-09-10T21:49:41.134Z,12.75
2022-09-10T21:52:43.778Z,12.77
2022-09-10T21:55:45.495Z,12.85
2022-09-10T21:58:47.117Z,12.91
2022-09-10T22:01:48.926Z,12.87
2022-09-10T22:04:50.661Z,12.90
2022-09-10T22:07:53.036Z,12.81
2022-09-10T22:10:54.551Z,12.77
2022-09-10T22:14:01.196Z,12.77
2022-09-10T22:17:03.292Z,12.83
2022-09-10T22:20:05.269Z,12.82
2022-09-10T22:23:07.001Z,12.77
2022-09-10T22:26:12.589Z,12.77
2022-09-10T22:29:18.121Z,12.85
2022-09-10T22:32:19.621Z,12.85
2022-09-10T22:35:21.201Z,12.71
2022-09-10T22:38:22.807Z,12.69
2022-09-10T22:41:24.378Z,12.68
2022-09-10T22:44:26.310Z,12.72
2022-09-10T22:47:27.912Z,12.72
2022-09-10T22:50:29.413Z,12.73
2022-09-10T22:53:30.965Z,12.64
2022-09-10T22:56:32.703Z,12.53
2022-09-10T22:59:37.478Z,12.47
2022-09-10T23:02:39.291Z,12.47
2022-09-10T23:05:41.643Z,12.43
2022-09-10T23:08:44.082Z,12.42
2022-09-10T23:11:45.918Z,12.37
2022-09-10T23:14:47.418Z,12.30
2022-09-10T23:17:48.942Z,12.23
2022-09-10T23:20:50.857Z,12.21
2022-09-10T23:23:56.394Z,12.19
2022-09-10T23:26:57.954Z,12.16
2022-09-10T23:29:59.450Z,12.14
2022-09-10T23:33:00.927Z,12.08
2022-09-10T23:36:03.660Z,12.06
2022-09-10T23:39:06.762Z,12.05
2022-09-10T23:42:08.883Z,12.06
2022-09-10T23:45:10.724Z,12.10
2022-09-10T23:48:12.202Z,12.11
2022-09-10T23:51:14.050Z,12.13
2022-09-10T23:54:15.590Z,12.11
2022-09-10T23:57:17.505Z,12.14
